sensor_id;sensor_type;location;lat;lon;timestamp;pressure;altitude;pressure_sealevel;temperature;humidity
5298;BME280;14738;42.668;23.250;2022-08-21T00:01:53;48445.88;;;-141.90;100.00
5298;BME280;14738;42.668;23.250;2022-08-21T00:04:19;48455.81;;;-141.90;100.00
5298;BME280;14738;42.668;23.250;2022-08-21T00:06:44;48437.94;;;-141.90;100.00
5298;BME280;14738;42.668;23.250;2022-08-21T00:09:10;48439.94;;;-141.90;100.00
5298;BME280;14738;42.668;23.250;2022-08-21T00:11:37;48449.84;;;-141.90;100.00
5298;BME280;14738;42.668;23.250;2022-08-21T00:14:04;48426.03;;;-141.90;100.00
5298;BME280;14738;42.668;23.250;2022-08-21T00:16:31;48447.88;;;-141.90;100.00
5298;BME280;14738;42.668;23.250;2022-08-21T00:18:57;48447.88;;;-141.90;100.00
5298;BME280;14738;42.668;23.250;2022-08-21T00:21:22;48426.03;;;-141.90;100.00
5298;BME280;14738;42.668;23.250;2022-08-21T00:23:48;48445.88;;;-141.90;100.00
5298;BME280;14738;42.668;23.250;2022-08-21T00:26:13;48433.97;;;-141.90;100.00
5298;BME280;14738;42.668;23.250;2022-08-21T00:28:39;48420.09;;;-141.90;100.00
5298;BME280;14738;42.668;23.250;2022-08-21T00:31:05;48445.88;;;-141.90;100.00
5298;BME280;14738;42.668;23.250;2022-08-21T00:33:31;48445.88;;;-141.90;100.00
5298;BME280;14738;42.668;23.250;2022-08-21T00:35:57;48426.03;;;-141.90;100.00
5298;BME280;14738;42.668;23.250;2022-08-21T00:38:22;48416.09;;;-141.90;100.00
5298;BME280;14738;42.668;23.250;2022-08-21T00:40:54;48426.03;;;-141.90;100.00
5298;BME280;14738;42.668;23.250;2022-08-21T00:43:24;48449.84;;;-141.90;100.00
5298;BME280;14738;42.668;23.250;2022-08-21T00:45:50;48461.78;;;-141.90;100.00
5298;BME280;14738;42.668;23.250;2022-08-21T00:48:16;48453.81;;;-141.90;100.00
5298;BME280;14738;42.668;23.250;2022-08-21T00:50:46;48465.75;;;-141.90;100.00
5298;BME280;14738;42.668;23.250;2022-08-21T00:53:13;48447.88;;;-141.90;100.00
5298;BME280;14738;42.668;23.250;2022-08-21T00:55:39;48426.03;;;-141.90;100.00
5298;BME280;14738;42.668;23.250;2022-08-21T00:58:08;48441.91;;;-141.90;100.00
5298;BME280;14738;42.668;23.250;2022-08-21T01:00:38;48445.88;;;-141.90;100.00
5298;BME280;14738;42.668;23.250;2022-08-21T01:03:14;48410.16;;;-141.90;100.00
5298;BME280;14738;42.668;23.250;2022-08-21T01:05:41;48426.03;;;-141.90;100.00
5298;BME280;14738;42.668;23.250;2022-08-21T01:08:08;48433.97;;;-141.90;100.00
5298;BME280;14738;42.668;23.250;2022-08-21T01:10:35;48483.59;;;-141.90;100.00
5298;BME280;14738;42.668;23.250;2022-08-21T01:13:01;48422.06;;;-141.90;100.00
5298;BME280;14738;42.668;23.250;2022-08-21T01:15:34;48445.88;;;-141.90;100.00
5298;BME280;14738;42.668;23.250;2022-08-21T01:18:02;48445.88;;;-141.90;100.00
5298;BME280;14738;42.668;23.250;2022-08-21T01:20:28;48453.81;;;-141.90;100.00
5298;BME280;14738;42.668;23.250;2022-08-21T01:22:54;48451.84;;;-141.90;100.00
5298;BME280;14738;42.668;23.250;2022-08-21T01:25:20;48451.84;;;-141.90;100.00
5298;BME280;14738;42.668;23.250;2022-08-21T01:27:45;48435.97;;;-141.90;100.00
5298;BME280;14738;42.668;23.250;2022-08-21T01:30:18;48439.94;;;-141.90;100.00
5298;BME280;14738;42.668;23.250;2022-08-21T01:32:45;48471.69;;;-141.90;100.00
5298;BME280;14738;42.668;23.250;2022-08-21T01:35:12;48451.84;;;-141.90;100.00
5298;BME280;14738;42.668;23.250;2022-08-21T01:37:39;48457.81;;;-141.90;100.00
5298;BME280;14738;42.668;23.250;2022-08-21T01:40:06;48447.88;;;-141.90;100.00
5298;BME280;14738;42.668;23.250;2022-08-21T01:42:32;48453.81;;;-141.90;100.00
5298;BME280;14738;42.668;23.250;2022-08-21T01:44:58;48443.91;;;-141.90;100.00
5298;BME280;14738;42.668;23.250;2022-08-21T01:47:23;48449.84;;;-141.90;100.00
5298;BME280;14738;42.668;23.250;2022-08-21T01:49:49;48453.81;;;-141.90;100.00
5298;BME280;14738;42.668;23.250;2022-08-21T01:52:14;48455.81;;;-141.90;100.00
5298;BME280;14738;42.668;23.250;2022-08-21T01:54:40;48449.84;;;-141.90;100.00
5298;BME280;14738;42.668;23.250;2022-08-21T01:57:07;48433.97;;;-141.90;100.00
5298;BME280;14738;42.668;23.250;2022-08-21T01:59:33;48457.81;;;-141.90;100.00
5298;BME280;14738;42.668;23.250;2022-08-21T02:01:58;48459.78;;;-141.90;100.00
5298;BME280;14738;42.668;23.250;2022-08-21T02:04:24;48418.09;;;-141.90;100.00
5298;BME280;14738;42.668;23.250;2022-08-21T02:06:50;48453.81;;;-141.90;100.00
5298;BME280;14738;42.668;23.250;2022-08-21T02:09:16;48418.09;;;-141.90;100.00
5298;BME280;14738;42.668;23.250;2022-08-21T02:11:41;48432.00;;;-141.90;100.00
5298;BME280;14738;42.668;23.250;2022-08-21T02:14:08;48414.13;;;-141.90;100.00
5298;BME280;14738;42.668;23.250;2022-08-21T02:16:34;48414.13;;;-141.90;100.00
5298;BME280;14738;42.668;23.250;2022-08-21T02:19:00;48437.94;;;-141.90;100.00
5298;BME280;14738;42.668;23.250;2022-08-21T02:21:25;48420.09;;;-141.90;100.00
5298;BME280;14738;42.668;23.250;2022-08-21T02:23:51;48451.84;;;-141.90;100.00
5298;BME280;14738;42.668;23.250;2022-08-21T02:26:17;48441.91;;;-141.90;100.00
5298;BME280;14738;42.668;23.250;2022-08-21T02:28:42;48426.03;;;-141.90;100.00
5298;BME280;14738;42.668;23.250;2022-08-21T02:31:08;48457.81;;;-141.90;100.00
5298;BME280;14738;42.668;23.250;2022-08-21T02:33:34;48457.81;;;-141.90;100.00
5298;BME280;14738;42.668;23.250;2022-08-21T02:36:00;48469.72;;;-141.90;100.00
5298;BME280;14738;42.668;23.250;2022-08-21T02:38:28;48465.75;;;-141.90;100.00
5298;BME280;14738;42.668;23.250;2022-08-21T02:40:55;48430.00;;;-141.90;100.00
5298;BME280;14738;42.668;23.250;2022-08-21T02:43:23;48449.84;;;-141.90;100.00
5298;BME280;14738;42.668;23.250;2022-08-21T02:45:50;48449.84;;;-141.90;100.00
5298;BME280;14738;42.668;23.250;2022-08-21T02:48:18;48418.09;;;-141.90;100.00
5298;BME280;14738;42.668;23.250;2022-08-21T02:50:47;48439.94;;;-141.90;100.00
5298;BME280;14738;42.668;23.250;2022-08-21T02:53:15;48426.03;;;-141.90;100.00
5298;BME280;14738;42.668;23.250;2022-08-21T02:55:43;48441.91;;;-141.90;100.00
5298;BME280;14738;42.668;23.250;2022-08-21T02:58:08;48471.69;;;-141.90;100.00
5298;BME280;14738;42.668;23.250;2022-08-21T03:00:35;48441.91;;;-141.90;100.00
5298;BME280;14738;42.668;23.250;2022-08-21T03:03:04;48445.88;;;-141.90;100.00
5298;BME280;14738;42.668;23.250;2022-08-21T03:05:30;48477.66;;;-141.90;100.00
5298;BME280;14738;42.668;23.250;2022-08-21T03:07:58;48433.97;;;-141.90;100.00
5298;BME280;14738;42.668;23.250;2022-08-21T03:10:24;48453.81;;;-141.90;100.00
5298;BME280;14738;42.668;23.250;2022-08-21T03:12:50;48435.97;;;-141.90;100.00
5298;BME280;14738;42.668;23.250;2022-08-21T03:15:18;48441.91;;;-141.90;100.00
5298;BME280;14738;42.668;23.250;2022-08-21T03:17:44;48398.25;;;-141.90;100.00
5298;BME280;14738;42.668;23.250;2022-08-21T03:20:12;48465.75;;;-141.90;100.00
5298;BME280;14738;42.668;23.250;2022-08-21T03:22:39;48467.72;;;-141.90;100.00
5298;BME280;14738;42.668;23.250;2022-08-21T03:25:05;48463.75;;;-141.90;100.00
5298;BME280;14738;42.668;23.250;2022-08-21T03:27:30;48441.91;;;-141.90;100.00
5298;BME280;14738;42.668;23.250;2022-08-21T03:29:56;48449.84;;;-141.90;100.00
5298;BME280;14738;42.668;23.250;2022-08-21T03:32:22;48422.06;;;-141.90;100.00
5298;BME280;14738;42.668;23.250;2022-08-21T03:34:48;48432.00;;;-141.90;100.00
5298;BME280;14738;42.668;23.250;2022-08-21T03:37:14;48461.78;;;-141.90;100.00
5298;BME280;14738;42.668;23.250;2022-08-21T03:39:40;48461.78;;;-141.90;100.00
5298;BME280;14738;42.668;23.250;2022-08-21T03:42:07;48461.78;;;-141.90;100.00
5298;BME280;14738;42.668;23.250;2022-08-21T03:44:33;48439.94;;;-141.90;100.00
5298;BME280;14738;42.668;23.250;2022-08-21T03:47:00;48477.66;;;-141.90;100.00
5298;BME280;14738;42.668;23.250;2022-08-21T03:49:26;48447.88;;;-141.90;100.00
5298;BME280;14738;42.668;23.250;2022-08-21T03:51:51;48453.81;;;-141.90;100.00
5298;BME280;14738;42.668;23.250;2022-08-21T03:54:17;48449.84;;;-141.90;100.00
5298;BME280;14738;42.668;23.250;2022-08-21T03:56:42;48441.91;;;-141.90;100.00
5298;BME280;14738;42.668;23.250;2022-08-21T03:59:08;48449.84;;;-141.90;100.00
5298;BME280;14738;42.668;23.250;2022-08-21T04:01:33;48445.88;;;-141.90;100.00
5298;BME280;14738;42.668;23.250;2022-08-21T04:03:59;48467.72;;;-141.90;100.00
5298;BME280;14738;42.668;23.250;2022-08-21T04:06:25;48471.69;;;-141.90;100.00
5298;BME280;14738;42.668;23.250;2022-08-21T04:08:52;48449.84;;;-141.90;100.00
5298;BME280;14738;42.668;23.250;2022-08-21T04:11:18;48457.81;;;-141.90;100.00
5298;BME280;14738;42.668;23.250;2022-08-21T04:13:44;48453.81;;;-141.90;100.00
5298;BME280;14738;42.668;23.250;2022-08-21T04:16:11;48475.66;;;-141.90;100.00
5298;BME280;14738;42.668;23.250;2022-08-21T04:18:36;48443.91;;;-141.90;100.00
5298;BME280;14738;42.668;23.250;2022-08-21T04:21:03;48455.81;;;-141.90;100.00
5298;BME280;14738;42.668;23.250;2022-08-21T04:23:28;48461.78;;;-141.90;100.00
5298;BME280;14738;42.668;23.250;2022-08-21T04:25:55;48469.72;;;-141.90;100.00
5298;BME280;14738;42.668;23.250;2022-08-21T04:28:22;48445.88;;;-141.90;100.00
5298;BME280;14738;42.668;23.250;2022-08-21T04:30:49;48455.81;;;-141.90;100.00
5298;BME280;14738;42.668;23.250;2022-08-21T04:33:15;48489.56;;;-141.90;100.00
5298;BME280;14738;42.668;23.250;2022-08-21T04:35:41;48453.81;;;-141.90;100.00
5298;BME280;14738;42.668;23.250;2022-08-21T04:38:07;48447.88;;;-141.90;100.00
5298;BME280;14738;42.668;23.250;2022-08-21T04:40:32;48465.75;;;-141.90;100.00
5298;BME280;14738;42.668;23.250;2022-08-21T04:43:02;48461.78;;;-141.90;100.00
5298;BME280;14738;42.668;23.250;2022-08-21T04:45:36;48495.53;;;-141.90;100.00
5298;BME280;14738;42.668;23.250;2022-08-21T04:48:05;48441.91;;;-141.90;100.00
5298;BME280;14738;42.668;23.250;2022-08-21T04:50:36;48485.59;;;-141.90;100.00
5298;BME280;14738;42.668;23.250;2022-08-21T04:53:10;48451.84;;;-141.90;100.00
5298;BME280;14738;42.668;23.250;2022-08-21T04:55:37;48477.66;;;-141.90;100.00
5298;BME280;14738;42.668;23.250;2022-08-21T04:58:07;48489.56;;;-141.90;100.00
5298;BME280;14738;42.668;23.250;2022-08-21T05:00:34;48471.69;;;-141.90;100.00
5298;BME280;14738;42.668;23.250;2022-08-21T05:03:00;48473.69;;;-141.90;100.00
5298;BME280;14738;42.668;23.250;2022-08-21T05:05:28;48471.69;;;-141.90;100.00
5298;BME280;14738;42.668;23.250;2022-08-21T05:07:56;48481.63;;;-141.90;100.00
5298;BME280;14738;42.668;23.250;2022-08-21T05:10:22;48453.81;;;-141.90;100.00
5298;BME280;14738;42.668;23.250;2022-08-21T05:12:48;48483.59;;;-141.90;100.00
5298;BME280;14738;42.668;23.250;2022-08-21T05:15:15;48469.72;;;-141.90;100.00
5298;BME280;14738;42.668;23.250;2022-08-21T05:17:41;48465.75;;;-141.90;100.00
5298;BME280;14738;42.668;23.250;2022-08-21T05:20:09;48485.59;;;-141.90;100.00
5298;BME280;14738;42.668;23.250;2022-08-21T05:22:34;48469.72;;;-141.90;100.00
5298;BME280;14738;42.668;23.250;2022-08-21T05:25:00;48449.84;;;-141.90;100.00
5298;BME280;14738;42.668;23.250;2022-08-21T05:27:25;48501.47;;;-141.90;100.00
5298;BME280;14738;42.668;23.250;2022-08-21T05:29:51;48481.63;;;-141.90;100.00
5298;BME280;14738;42.668;23.250;2022-08-21T05:32:16;48489.56;;;-141.90;100.00
5298;BME280;14738;42.668;23.250;2022-08-21T05:34:42;48477.66;;;-141.90;100.00
5298;BME280;14738;42.668;23.250;2022-08-21T05:37:11;48519.34;;;-141.90;100.00
5298;BME280;14738;42.668;23.250;2022-08-21T05:39:37;48495.53;;;-141.90;100.00
5298;BME280;14738;42.668;23.250;2022-08-21T05:42:02;48473.69;;;-141.90;100.00
5298;BME280;14738;42.668;23.250;2022-08-21T05:44:28;48481.63;;;-141.90;100.00
5298;BME280;14738;42.668;23.250;2022-08-21T05:46:53;48481.63;;;-141.90;100.00
5298;BME280;14738;42.668;23.250;2022-08-21T05:49:19;48485.59;;;-141.90;100.00
5298;BME280;14738;42.668;23.250;2022-08-21T05:51:44;48461.78;;;-141.90;100.00
5298;BME280;14738;42.668;23.250;2022-08-21T05:54:10;48517.34;;;-141.90;100.00
5298;BME280;14738;42.668;23.250;2022-08-21T05:56:36;48477.66;;;-141.90;100.00
5298;BME280;14738;42.668;23.250;2022-08-21T05:59:02;48455.81;;;-141.90;100.00
5298;BME280;14738;42.668;23.250;2022-08-21T06:01:28;48489.56;;;-141.90;100.00
5298;BME280;14738;42.668;23.250;2022-08-21T06:03:54;48477.66;;;-141.90;100.00
5298;BME280;14738;42.668;23.250;2022-08-21T06:06:19;48513.38;;;-141.90;100.00
5298;BME280;14738;42.668;23.250;2022-08-21T06:08:45;48529.28;;;-141.90;100.00
5298;BME280;14738;42.668;23.250;2022-08-21T06:11:10;48568.97;;;-141.90;100.00
5298;BME280;14738;42.668;23.250;2022-08-21T06:13:36;48700.00;;;-141.90;100.00
5298;BME280;14738;42.668;23.250;2022-08-21T06:16:11;48755.59;;;-141.90;100.00
5298;BME280;14738;42.668;23.250;2022-08-21T06:18:37;48749.66;;;-141.90;42.65
5298;BME280;14738;42.668;23.250;2022-08-21T06:21:04;48777.44;;;-141.90;43.50
5298;BME280;14738;42.668;23.250;2022-08-21T06:23:32;48825.09;;;-141.90;41.37
5298;BME280;14738;42.668;23.250;2022-08-21T06:25:57;48872.75;;;-141.90;37.34
5298;BME280;14738;42.668;23.250;2022-08-21T06:28:23;48862.81;;;-141.90;38.85
5298;BME280;14738;42.668;23.250;2022-08-21T06:30:49;48938.25;;;-141.90;36.53
5298;BME280;14738;42.668;23.250;2022-08-21T06:33:14;48926.34;;;-141.90;35.48
5298;BME280;14738;42.668;23.250;2022-08-21T06:35:40;48914.44;;;-141.90;36.93
5298;BME280;14738;42.668;23.250;2022-08-21T06:38:05;48954.16;;;-141.90;35.97
5298;BME280;14738;42.668;23.250;2022-08-21T06:40:31;48995.84;;;-141.90;33.31
5298;BME280;14738;42.668;23.250;2022-08-21T06:42:57;48983.94;;;-141.90;34.05
5298;BME280;14738;42.668;23.250;2022-08-21T06:45:23;48991.88;;;-141.90;33.87
5298;BME280;14738;42.668;23.250;2022-08-21T06:47:49;48928.34;;;-141.90;34.00
5298;BME280;14738;42.668;23.250;2022-08-21T06:50:15;48902.53;;;-141.90;37.44
5298;BME280;14738;42.668;23.250;2022-08-21T06:52:41;48920.41;;;-141.90;36.01
5298;BME280;14738;42.668;23.250;2022-08-21T06:55:08;48914.44;;;-141.90;35.90
5298;BME280;14738;42.668;23.250;2022-08-21T06:57:34;48835.03;;;-141.90;37.25
5298;BME280;14738;42.668;23.250;2022-08-21T07:00:01;48779.44;;;-141.90;40.13
5298;BME280;14738;42.668;23.250;2022-08-21T07:02:26;48739.72;;;-141.90;40.22
5298;BME280;14738;42.668;23.250;2022-08-21T07:04:52;48672.22;;;-141.90;44.23
5298;BME280;14738;42.668;23.250;2022-08-21T07:07:17;48640.44;;;-141.90;44.81
5298;BME280;14738;42.668;23.250;2022-08-21T07:09:43;48624.56;;;-141.90;45.78
5298;BME280;14738;42.668;23.250;2022-08-21T07:12:08;48628.53;;;-141.90;47.65
5298;BME280;14738;42.668;23.250;2022-08-21T07:14:35;48598.75;;;-141.90;49.66
5298;BME280;14738;42.668;23.250;2022-08-21T07:17:00;48586.84;;;-141.90;54.45
5298;BME280;14738;42.668;23.250;2022-08-21T07:19:26;48557.06;;;-141.90;51.99
5298;BME280;14738;42.668;23.250;2022-08-21T07:21:53;48590.81;;;-141.90;52.93
5298;BME280;14738;42.668;23.250;2022-08-21T07:24:22;48594.78;;;-141.90;53.00
5298;BME280;14738;42.668;23.250;2022-08-21T07:26:47;48592.81;;;-141.90;52.15
5298;BME280;14738;42.668;23.250;2022-08-21T07:29:12;48598.75;;;-141.90;53.52
5298;BME280;14738;42.668;23.250;2022-08-21T07:31:38;48596.78;;;-141.90;51.28
5298;BME280;14738;42.668;23.250;2022-08-21T07:34:03;48616.63;;;-141.90;49.62
5298;BME280;14738;42.668;23.250;2022-08-21T07:36:29;48606.69;;;-141.90;49.47
5298;BME280;14738;42.668;23.250;2022-08-21T07:38:54;48604.72;;;-141.90;48.12
5298;BME280;14738;42.668;23.250;2022-08-21T07:41:23;48618.59;;;-141.90;48.90
5298;BME280;14738;42.668;23.250;2022-08-21T07:43:50;48614.63;;;-141.90;49.78
5298;BME280;14738;42.668;23.250;2022-08-21T07:46:16;48594.78;;;-141.90;50.73
5298;BME280;14738;42.668;23.250;2022-08-21T07:48:41;48636.47;;;-141.90;50.15
5298;BME280;14738;42.668;23.250;2022-08-21T07:51:10;48640.44;;;-141.90;49.64
5298;BME280;14738;42.668;23.250;2022-08-21T07:53:37;48612.66;;;-141.90;48.15
5298;BME280;14738;42.668;23.250;2022-08-21T07:56:04;48612.66;;;-141.90;50.72
5298;BME280;14738;42.668;23.250;2022-08-21T07:58:31;48596.78;;;-141.90;51.61
5298;BME280;14738;42.668;23.250;2022-08-21T08:00:56;48614.63;;;-141.90;50.40
5298;BME280;14738;42.668;23.250;2022-08-21T08:03:22;48572.94;;;-141.90;50.79
5298;BME280;14738;42.668;23.250;2022-08-21T08:05:47;48606.69;;;-141.90;51.87
5298;BME280;14738;42.668;23.250;2022-08-21T08:08:13;48604.72;;;-141.90;53.03
5298;BME280;14738;42.668;23.250;2022-08-21T08:10:38;48586.84;;;-141.90;51.44
5298;BME280;14738;42.668;23.250;2022-08-21T08:13:04;48608.69;;;-141.90;52.95
5298;BME280;14738;42.668;23.250;2022-08-21T08:15:31;48614.63;;;-141.90;50.53
5298;BME280;14738;42.668;23.250;2022-08-21T08:17:57;48648.38;;;-141.90;48.87
5298;BME280;14738;42.668;23.250;2022-08-21T08:20:24;48616.63;;;-141.90;52.50
5298;BME280;14738;42.668;23.250;2022-08-21T08:22:51;48628.53;;;-141.90;49.19
5298;BME280;14738;42.668;23.250;2022-08-21T08:25:18;48590.81;;;-141.90;49.84
5298;BME280;14738;42.668;23.250;2022-08-21T08:27:43;48608.69;;;-141.90;48.43
5298;BME280;14738;42.668;23.250;2022-08-21T08:30:12;48608.69;;;-141.90;50.80
5298;BME280;14738;42.668;23.250;2022-08-21T08:32:39;48614.63;;;-141.90;47.74
5298;BME280;14738;42.668;23.250;2022-08-21T08:35:06;48664.28;;;-141.90;46.55
5298;BME280;14738;42.668;23.250;2022-08-21T08:37:32;48684.13;;;-141.90;46.26
5298;BME280;14738;42.668;23.250;2022-08-21T08:39:58;48680.16;;;-141.90;44.50
5298;BME280;14738;42.668;23.250;2022-08-21T08:42:29;48719.88;;;-141.90;44.54
5298;BME280;14738;42.668;23.250;2022-08-21T08:45:06;48703.97;;;-141.90;45.38
5298;BME280;14738;42.668;23.250;2022-08-21T08:47:36;48688.09;;;-141.90;42.76
5298;BME280;14738;42.668;23.250;2022-08-21T08:50:38;48727.81;;;-141.90;42.71
5298;BME280;14738;42.668;23.250;2022-08-21T08:53:30;48715.91;;;-141.90;41.44
5298;BME280;14738;42.668;23.250;2022-08-21T08:55:57;48694.06;;;-141.90;43.57
5298;BME280;14738;42.668;23.250;2022-08-21T08:58:25;48680.16;;;-141.90;43.28
5298;BME280;14738;42.668;23.250;2022-08-21T09:00:53;48652.38;;;-141.90;44.30
5298;BME280;14738;42.668;23.250;2022-08-21T09:03:22;48640.44;;;-141.90;44.52
5298;BME280;14738;42.668;23.250;2022-08-21T09:13:54;48672.22;;;-141.90;43.15
5298;BME280;14738;42.668;23.250;2022-08-21T09:17:02;48672.22;;;-141.90;42.73
5298;BME280;14738;42.668;23.250;2022-08-21T09:19:39;48670.22;;;-141.90;41.86
5298;BME280;14738;42.668;23.250;2022-08-21T09:22:25;48686.13;;;-141.90;42.28
5298;BME280;14738;42.668;23.250;2022-08-21T09:25:02;48646.41;;;-141.90;43.39
5298;BME280;14738;42.668;23.250;2022-08-21T09:27:33;48604.72;;;-141.90;43.67
5298;BME280;14738;42.668;23.250;2022-08-21T09:29:59;48606.69;;;-141.90;43.01
5298;BME280;14738;42.668;23.250;2022-08-21T09:32:27;48626.56;;;-141.90;42.60
5298;BME280;14738;42.668;23.250;2022-08-21T09:42:58;48622.59;;;-141.90;43.67
5298;BME280;14738;42.668;23.250;2022-08-21T09:45:24;48612.66;;;-141.90;43.05
5298;BME280;14738;42.668;23.250;2022-08-21T09:47:49;48620.59;;;-141.90;43.47
5298;BME280;14738;42.668;23.250;2022-08-21T09:50:18;48606.69;;;-141.90;44.22
5298;BME280;14738;42.668;23.250;2022-08-21T09:52:57;48596.78;;;-141.90;44.54
5298;BME280;14738;42.668;23.250;2022-08-21T09:55:38;48618.59;;;-141.90;44.41
5298;BME280;14738;42.668;23.250;2022-08-21T09:58:32;48622.59;;;-141.90;42.60
5298;BME280;14738;42.668;23.250;2022-08-21T10:01:00;48668.25;;;-141.90;44.46
5298;BME280;14738;42.668;23.250;2022-08-21T10:03:28;48644.41;;;-141.90;42.68
5298;BME280;14738;42.668;23.250;2022-08-21T10:08:22;48660.31;;;-141.90;41.91
5298;BME280;14738;42.668;23.250;2022-08-21T10:10:57;48737.72;;;-141.90;40.47
5298;BME280;14738;42.668;23.250;2022-08-21T10:13:46;48696.03;;;-141.90;40.09
5298;BME280;14738;42.668;23.250;2022-08-21T10:19:18;48688.09;;;-141.90;41.61
5298;BME280;14738;42.668;23.250;2022-08-21T10:25:02;48725.81;;;-141.90;38.97
5298;BME280;14738;42.668;23.250;2022-08-21T10:30:11;48666.25;;;-141.90;38.15
5298;BME280;14738;42.668;23.250;2022-08-21T10:41:36;48646.41;;;-141.90;39.87
5298;BME280;14738;42.668;23.250;2022-08-21T10:46:57;48703.97;;;-141.90;39.05
5298;BME280;14738;42.668;23.250;2022-08-21T10:49:48;48692.06;;;-141.90;39.13
5298;BME280;14738;42.668;23.250;2022-08-21T10:55:18;48727.81;;;-141.90;39.27
5298;BME280;14738;42.668;23.250;2022-08-21T11:00:19;48715.91;;;-141.90;39.60
5298;BME280;14738;42.668;23.250;2022-08-21T11:05:33;48711.91;;;-141.90;40.45
5298;BME280;14738;42.668;23.250;2022-08-21T11:10:46;48670.22;;;-141.90;40.04
5298;BME280;14738;42.668;23.250;2022-08-21T11:13:21;48723.84;;;-141.90;39.78
5298;BME280;14738;42.668;23.250;2022-08-21T11:16:17;48707.94;;;-141.90;39.41
5298;BME280;14738;42.668;23.250;2022-08-21T11:19:02;48719.88;;;-141.90;40.33
5298;BME280;14738;42.668;23.250;2022-08-21T11:21:58;48715.91;;;-141.90;40.25
5298;BME280;14738;42.668;23.250;2022-08-21T11:24:57;48700.00;;;-141.90;40.34
5298;BME280;14738;42.668;23.250;2022-08-21T11:27:45;48707.94;;;-141.90;39.93
5298;BME280;14738;42.668;23.250;2022-08-21T11:30:12;48702.00;;;-141.90;39.19
5298;BME280;14738;42.668;23.250;2022-08-21T11:35:52;48692.06;;;-141.90;40.93
5298;BME280;14738;42.668;23.250;2022-08-21T11:41:36;48739.72;;;-141.90;39.34
5298;BME280;14738;42.668;23.250;2022-08-21T11:49:35;48648.38;;;-141.90;39.85
5298;BME280;14738;42.668;23.250;2022-08-21T11:52:19;48707.94;;;-141.90;39.85
5298;BME280;14738;42.668;23.250;2022-08-21T11:55:01;48698.03;;;-141.90;39.12
5298;BME280;14738;42.668;23.250;2022-08-21T11:57:38;48707.94;;;-141.90;38.87
5298;BME280;14738;42.668;23.250;2022-08-21T12:00:13;48684.13;;;-141.90;39.60
5298;BME280;14738;42.668;23.250;2022-08-21T12:02:45;48666.25;;;-141.90;38.86
5298;BME280;14738;42.668;23.250;2022-08-21T12:05:27;48688.09;;;-141.90;38.69
5298;BME280;14738;42.668;23.250;2022-08-21T12:08:02;48662.28;;;-141.90;39.27
5298;BME280;14738;42.668;23.250;2022-08-21T12:10:34;48705.97;;;-141.90;39.01
5298;BME280;14738;42.668;23.250;2022-08-21T12:13:22;48644.41;;;-141.90;39.58
5298;BME280;14738;42.668;23.250;2022-08-21T12:15:48;48684.13;;;-141.90;39.05
5298;BME280;14738;42.668;23.250;2022-08-21T12:18:31;48680.16;;;-141.90;39.35
5298;BME280;14738;42.668;23.250;2022-08-21T12:23:43;48682.13;;;-141.90;39.42
5298;BME280;14738;42.668;23.250;2022-08-21T12:26:20;48648.38;;;-141.90;40.42
5298;BME280;14738;42.668;23.250;2022-08-21T12:28:47;48656.34;;;-141.90;39.87
5298;BME280;14738;42.668;23.250;2022-08-21T12:31:24;48662.28;;;-141.90;40.44
5298;BME280;14738;42.668;23.250;2022-08-21T12:33:59;48662.28;;;-141.90;40.44
5298;BME280;14738;42.668;23.250;2022-08-21T12:36:43;48652.38;;;-141.90;40.27
5298;BME280;14738;42.668;23.250;2022-08-21T12:39:13;48676.19;;;-141.90;40.74
5298;BME280;14738;42.668;23.250;2022-08-21T12:41:55;48684.13;;;-141.90;40.57
5298;BME280;14738;42.668;23.250;2022-08-21T12:44:38;48660.31;;;-141.90;40.22
5298;BME280;14738;42.668;23.250;2022-08-21T12:47:12;48652.38;;;-141.90;41.15
5298;BME280;14738;42.668;23.250;2022-08-21T12:50:02;48664.28;;;-141.90;40.17
5298;BME280;14738;42.668;23.250;2022-08-21T12:54:59;48632.50;;;-141.90;40.58
5298;BME280;14738;42.668;23.250;2022-08-21T12:57:27;48664.28;;;-141.90;40.24
5298;BME280;14738;42.668;23.250;2022-08-21T12:59:57;48620.59;;;-141.90;41.34
5298;BME280;14738;42.668;23.250;2022-08-21T13:02:28;48608.69;;;-141.90;41.50
5298;BME280;14738;42.668;23.250;2022-08-21T13:04:55;48624.56;;;-141.90;40.95
5298;BME280;14738;42.668;23.250;2022-08-21T13:07:31;48652.38;;;-141.90;41.79
5298;BME280;14738;42.668;23.250;2022-08-21T13:10:23;48676.19;;;-141.90;42.25
5298;BME280;14738;42.668;23.250;2022-08-21T13:12:51;48642.44;;;-141.90;41.94
5298;BME280;14738;42.668;23.250;2022-08-21T13:15:28;48672.22;;;-141.90;42.58
5298;BME280;14738;42.668;23.250;2022-08-21T13:17:57;48636.47;;;-141.90;41.62
5298;BME280;14738;42.668;23.250;2022-08-21T13:20:47;48670.22;;;-141.90;41.85
5298;BME280;14738;42.668;23.250;2022-08-21T13:23:31;48658.31;;;-141.90;41.19
5298;BME280;14738;42.668;23.250;2022-08-21T13:25:57;48642.44;;;-141.90;40.09
5298;BME280;14738;42.668;23.250;2022-08-21T13:28:23;48676.19;;;-141.90;39.52
5298;BME280;14738;42.668;23.250;2022-08-21T13:30:53;48666.25;;;-141.90;39.88
5298;BME280;14738;42.668;23.250;2022-08-21T13:33:22;48664.28;;;-141.90;39.30
5298;BME280;14738;42.668;23.250;2022-08-21T13:38:28;48709.94;;;-141.90;38.65
5298;BME280;14738;42.668;23.250;2022-08-21T13:41:01;48668.25;;;-141.90;38.58
5298;BME280;14738;42.668;23.250;2022-08-21T13:43:31;48682.13;;;-141.90;39.77
5298;BME280;14738;42.668;23.250;2022-08-21T13:45:57;48658.31;;;-141.90;39.52
5298;BME280;14738;42.668;23.250;2022-08-21T13:48:26;48672.22;;;-141.90;39.60
5298;BME280;14738;42.668;23.250;2022-08-21T13:50:53;48707.94;;;-141.90;40.62
5298;BME280;14738;42.668;23.250;2022-08-21T13:53:21;48703.97;;;-141.90;39.16
5298;BME280;14738;42.668;23.250;2022-08-21T13:55:48;48711.91;;;-141.90;39.91